createdAt,value
2019-02-15T00:00:42.874Z,8.70
2019-02-15T00:03:09.539Z,9.20
2019-02-15T00:05:36.169Z,7.87
2019-02-15T00:08:03.029Z,9.00
2019-02-15T00:10:29.855Z,8.77
2019-02-15T00:12:56.480Z,9.77
2019-02-15T00:15:23.200Z,8.30
2019-02-15T00:17:51.742Z,9.80
2019-02-15T00:20:20.337Z,8.97
2019-02-15T00:22:47.084Z,9.60
2019-02-15T00:25:13.739Z,10.20
2019-02-15T00:27:40.439Z,8.50
2019-02-15T00:30:09.177Z,8.67
2019-02-15T00:32:35.808Z,8.80
2019-02-15T00:35:02.629Z,9.30
2019-02-15T00:37:29.332Z,9.20
2019-02-15T00:39:55.948Z,8.20
2019-02-15T00:42:22.726Z,9.03
2019-02-15T00:44:49.436Z,9.23
2019-02-15T00:47:18.059Z,9.20
2019-02-15T00:49:45.697Z,8.57
2019-02-15T00:52:22.924Z,8.97
2019-02-15T00:54:51.473Z,8.40
2019-02-15T00:57:22.821Z,8.50
2019-02-15T00:59:57.142Z,9.00
2019-02-15T01:02:34.573Z,9.83
2019-02-15T01:05:05.963Z,9.90
2019-02-15T01:07:50.013Z,9.23
2019-02-15T01:10:27.541Z,8.50
2019-02-15T01:12:56.111Z,9.00
2019-02-15T01:15:23.048Z,8.40
2019-02-15T01:17:49.679Z,8.40
2019-02-15T01:20:16.361Z,8.70
2019-02-15T01:22:43.143Z,9.07
2019-02-15T01:25:31.423Z,9.30
2019-02-15T01:28:12.371Z,9.33
2019-02-15T01:30:47.031Z,8.00
2019-02-15T01:33:18.617Z,9.67
2019-02-15T01:36:03.544Z,7.40
2019-02-15T01:38:41.225Z,8.27
2019-02-15T01:41:18.876Z,8.43
2019-02-15T01:44:05.880Z,7.83
2019-02-15T01:46:34.444Z,8.20
2019-02-15T01:49:01.113Z,7.70
2019-02-15T01:51:27.783Z,7.00
2019-02-15T01:53:54.435Z,8.23
2019-02-15T01:56:21.136Z,8.63
2019-02-15T01:58:48.274Z,9.40
2019-02-15T02:01:16.841Z,7.70
2019-02-15T02:03:43.511Z,8.80
2019-02-15T02:06:10.166Z,8.47
2019-02-15T02:08:36.819Z,8.83
2019-02-15T02:11:03.483Z,8.43
2019-02-15T02:13:30.315Z,8.27
2019-02-15T02:15:57.001Z,7.57
2019-02-15T02:18:23.624Z,8.13
2019-02-15T02:20:50.318Z,7.90
2019-02-15T02:23:16.933Z,8.20
2019-02-15T02:25:43.576Z,8.27
2019-02-15T02:28:10.273Z,7.83
2019-02-15T02:30:37.029Z,8.53
2019-02-15T02:33:03.693Z,8.57
2019-02-15T02:35:30.363Z,8.50
2019-02-15T02:37:57.046Z,7.73
2019-02-15T02:40:23.840Z,7.87
2019-02-15T02:42:50.576Z,8.17
2019-02-15T02:45:17.210Z,7.60
2019-02-15T02:47:43.987Z,8.17
2019-02-15T02:50:10.885Z,9.67
2019-02-15T02:52:37.790Z,7.90
2019-02-15T02:55:06.415Z,8.43
2019-02-15T02:57:33.180Z,8.33
2019-02-15T02:59:59.927Z,8.33
2019-02-15T03:02:27.866Z,8.80
2019-02-15T03:05:16.261Z,8.40
2019-02-15T03:07:43.032Z,8.30
2019-02-15T03:10:09.657Z,7.90
2019-02-15T03:12:36.308Z,8.43
2019-02-15T03:15:04.204Z,9.30
2019-02-15T03:17:30.860Z,8.27
2019-02-15T03:19:57.553Z,9.30
2019-02-15T03:22:24.541Z,8.50
2019-02-15T03:24:51.535Z,8.00
2019-02-15T03:27:18.712Z,8.33
2019-02-15T03:29:45.478Z,8.13
2019-02-15T03:32:12.188Z,7.47
2019-02-15T03:34:39.191Z,7.03
2019-02-15T03:37:26.017Z,8.27
2019-02-15T03:40:16.440Z,8.10
2019-02-15T03:42:43.520Z,7.40
2019-02-15T03:45:10.743Z,7.83
2019-02-15T03:47:38.102Z,8.30
2019-02-15T03:50:07.201Z,8.13
2019-02-15T03:52:34.034Z,8.07
2019-02-15T03:55:00.853Z,7.60
2019-02-15T03:57:28.237Z,8.43
2019-02-15T03:59:56.451Z,8.47
2019-02-15T04:02:23.193Z,9.50
2019-02-15T04:04:49.811Z,11.50
2019-02-15T04:07:16.602Z,11.77
2019-02-15T04:09:43.251Z,10.30
2019-02-15T04:12:09.943Z,11.13
2019-02-15T04:14:36.745Z,9.63
2019-02-15T04:17:03.411Z,11.00
2019-02-15T04:19:30.140Z,10.07
2019-02-15T04:21:56.883Z,10.30
2019-02-15T04:24:23.656Z,8.50
2019-02-15T04:26:50.340Z,9.13
2019-02-15T04:29:17.084Z,9.20
2019-02-15T04:31:45.464Z,9.93
2019-02-15T04:34:12.198Z,8.67
2019-02-15T04:36:38.911Z,9.17
2019-02-15T04:39:05.536Z,9.50
2019-02-15T04:41:32.512Z,9.60
2019-02-15T04:43:59.272Z,8.77
2019-02-15T04:46:25.888Z,8.03
2019-02-15T04:48:52.605Z,8.87
2019-02-15T04:51:19.246Z,10.13
2019-02-15T04:53:46.319Z,9.40
2019-02-15T04:56:13.145Z,9.27
2019-02-15T04:58:39.872Z,9.23
2019-02-15T05:01:06.488Z,9.23
2019-02-15T05:03:33.143Z,8.87
2019-02-15T05:05:59.960Z,9.33
2019-02-15T05:08:26.606Z,8.57
2019-02-15T05:10:53.317Z,8.67
2019-02-15T05:13:19.935Z,8.63
2019-02-15T05:15:46.594Z,9.30
2019-02-15T05:18:13.333Z,8.30
2019-02-15T05:20:39.994Z,8.20
2019-02-15T05:23:06.652Z,8.53
2019-02-15T05:25:33.330Z,8.70
2019-02-15T05:27:59.982Z,9.37
2019-02-15T05:30:26.623Z,9.70
2019-02-15T05:32:53.357Z,8.93
2019-02-15T05:35:20.024Z,8.80
2019-02-15T05:37:46.653Z,9.47
2019-02-15T05:40:13.331Z,8.50
2019-02-15T05:42:40.145Z,8.70
2019-02-15T05:45:06.950Z,9.60
2019-02-15T05:47:33.556Z,9.80
2019-02-15T05:50:00.437Z,8.93
2019-02-15T05:52:27.240Z,8.90
2019-02-15T05:54:53.932Z,9.60
2019-02-15T05:57:20.588Z,9.10
2019-02-15T05:59:47.233Z,8.93
2019-02-15T06:02:14.020Z,7.97
2019-02-15T06:04:40.675Z,9.70
2019-02-15T06:07:07.326Z,8.90
2019-02-15T06:09:33.900Z,9.20
2019-02-15T06:12:00.525Z,9.10
2019-02-15T06:14:27.205Z,9.00
2019-02-15T06:16:55.622Z,8.30
2019-02-15T06:19:22.285Z,8.77
2019-02-15T06:21:49.044Z,8.07
2019-02-15T06:24:16.359Z,8.50
2019-02-15T06:26:43.419Z,9.17
2019-02-15T06:29:10.468Z,9.10
2019-02-15T06:31:37.521Z,9.00
2019-02-15T06:34:04.568Z,8.53
2019-02-15T06:36:33.556Z,8.93
2019-02-15T06:39:00.585Z,8.50
2019-02-15T06:41:27.558Z,11.90
2019-02-15T06:43:54.223Z,10.93
2019-02-15T06:46:21.019Z,11.97
2019-02-15T06:48:48.428Z,10.67
2019-02-15T06:51:15.713Z,11.07
2019-02-15T06:53:43.464Z,12.97
2019-02-15T06:56:10.123Z,10.80
2019-02-15T06:58:45.500Z,10.30
2019-02-15T07:01:09.091Z,10.20
2019-02-15T07:03:52.763Z,17.60
2019-02-15T07:06:19.530Z,10.43
2019-02-15T07:08:46.216Z,9.40
2019-02-15T07:11:12.890Z,9.87
2019-02-15T07:13:39.553Z,10.00
2019-02-15T07:16:06.184Z,8.60
2019-02-15T07:18:32.868Z,9.50
2019-02-15T07:20:59.502Z,9.83
2019-02-15T07:23:26.281Z,8.90
2019-02-15T07:25:53.039Z,9.47
2019-02-15T07:28:19.804Z,9.37
2019-02-15T07:30:46.533Z,9.57
2019-02-15T07:33:13.192Z,9.00
2019-02-15T07:35:39.847Z,9.47
2019-02-15T07:38:06.624Z,9.00
2019-02-15T07:40:33.347Z,7.73
2019-02-15T07:43:00.982Z,10.00
2019-02-15T07:45:27.611Z,9.43
2019-02-15T07:47:54.859Z,9.60
2019-02-15T07:50:21.492Z,9.17
2019-02-15T07:52:48.225Z,9.17
2019-02-15T07:55:14.881Z,9.30
2019-02-15T07:57:41.637Z,10.30
2019-02-15T08:00:13.291Z,9.60
2019-02-15T08:02:39.958Z,8.77
2019-02-15T08:05:07.691Z,8.73
2019-02-15T08:07:34.475Z,7.60
2019-02-15T08:10:01.117Z,8.50
2019-02-15T08:12:27.763Z,8.60
2019-02-15T08:14:54.932Z,8.67
2019-02-15T08:17:21.693Z,8.20
2019-02-15T08:19:48.650Z,9.33
2019-02-15T08:22:15.541Z,7.97
2019-02-15T08:24:42.329Z,9.40
2019-02-15T08:27:09.053Z,8.27
2019-02-15T08:29:37.236Z,8.20
2019-02-15T08:32:04.207Z,9.47
2019-02-15T08:34:31.119Z,8.27
2019-02-15T08:36:58.129Z,9.30
2019-02-15T08:39:25.222Z,9.47
2019-02-15T08:42:01.179Z,6.57
2019-02-15T08:44:20.670Z,7.80
2019-02-15T08:46:47.457Z,13.80
2019-02-15T08:49:14.359Z,10.37
2019-02-15T08:51:41.364Z,8.43
2019-02-15T08:54:08.249Z,9.20
2019-02-15T08:56:35.228Z,9.03
2019-02-15T08:59:02.089Z,10.10
2019-02-15T09:01:28.996Z,10.53
2019-02-15T09:03:55.780Z,12.40
2019-02-15T09:06:22.609Z,12.23
2019-02-15T09:08:49.460Z,10.83
2019-02-15T09:11:16.121Z,10.10
2019-02-15T09:13:42.746Z,9.13
2019-02-15T09:16:10.612Z,10.20
2019-02-15T09:18:39.083Z,10.10
2019-02-15T09:21:05.692Z,8.40
2019-02-15T09:23:32.537Z,7.37
2019-02-15T09:25:59.244Z,7.87
2019-02-15T09:28:33.651Z,6.00
2019-02-15T09:31:00.776Z,8.83
2019-02-15T09:33:27.466Z,9.80
2019-02-15T09:35:54.204Z,11.03
2019-02-15T09:38:20.825Z,10.80
2019-02-15T09:40:47.552Z,10.10
2019-02-15T09:43:14.852Z,9.37
2019-02-15T09:45:41.916Z,10.73
2019-02-15T09:48:08.610Z,10.17
2019-02-15T09:50:35.578Z,9.80
2019-02-15T09:53:02.172Z,9.30
2019-02-15T09:55:29.235Z,8.20
2019-02-15T09:57:55.925Z,8.07
2019-02-15T10:00:22.585Z,9.03
2019-02-15T10:02:49.233Z,8.13
2019-02-15T10:05:16.015Z,8.60
2019-02-15T10:07:42.898Z,9.90
2019-02-15T10:10:09.642Z,10.20
2019-02-15T10:12:36.284Z,7.90
2019-02-15T10:15:08.216Z,7.80
2019-02-15T10:17:35.015Z,7.77
2019-02-15T10:20:01.768Z,7.90
2019-02-15T10:22:31.600Z,6.90
2019-02-15T10:24:58.569Z,6.90
2019-02-15T10:27:25.232Z,6.07
2019-02-15T10:29:51.890Z,5.77
2019-02-15T10:32:18.709Z,7.13
2019-02-15T10:34:45.506Z,8.50
2019-02-15T10:37:12.386Z,5.43
2019-02-15T10:39:39.237Z,6.77
2019-02-15T10:42:06.057Z,5.93
2019-02-15T10:44:32.741Z,6.00
2019-02-15T10:46:59.477Z,4.70
2019-02-15T10:49:26.300Z,7.93
2019-02-15T10:51:52.956Z,5.70
2019-02-15T10:54:19.588Z,5.50
2019-02-15T10:56:46.355Z,5.70
2019-02-15T10:59:12.996Z,5.60
2019-02-15T11:01:39.661Z,6.30
2019-02-15T11:04:06.333Z,5.67
2019-02-15T11:06:33.371Z,6.00
2019-02-15T11:09:02.075Z,7.27
2019-02-15T11:11:28.650Z,7.03
2019-02-15T11:13:55.285Z,6.00
2019-02-15T11:16:22.273Z,5.30
2019-02-15T11:18:48.972Z,5.90
2019-02-15T11:21:15.652Z,5.33
2019-02-15T11:23:42.574Z,5.00
2019-02-15T11:26:09.325Z,5.10
2019-02-15T11:28:36.067Z,4.87
2019-02-15T11:31:02.921Z,4.77
2019-02-15T11:33:29.777Z,4.60
2019-02-15T11:35:56.447Z,4.80
2019-02-15T11:38:23.152Z,4.67
2019-02-15T11:40:49.792Z,4.43
2019-02-15T11:43:16.607Z,3.77
2019-02-15T11:45:43.355Z,4.23
2019-02-15T11:48:10.451Z,4.97
2019-02-15T11:50:37.345Z,3.63
2019-02-15T11:53:03.963Z,4.83
2019-02-15T11:55:30.681Z,4.77
2019-02-15T11:57:57.461Z,3.40
2019-02-15T12:00:34.866Z,3.50
2019-02-15T12:03:01.500Z,3.27
2019-02-15T12:05:28.343Z,3.30
2019-02-15T12:07:55.328Z,3.70
2019-02-15T12:10:22.396Z,2.20
2019-02-15T12:12:49.558Z,2.10
2019-02-15T12:15:16.270Z,2.80
2019-02-15T12:17:43.337Z,2.20
2019-02-15T12:20:12.119Z,3.77
2019-02-15T12:22:38.785Z,3.53
2019-02-15T12:25:06.764Z,3.80
2019-02-15T12:27:33.417Z,3.47
2019-02-15T12:30:00.049Z,4.00
2019-02-15T12:32:26.833Z,4.47
2019-02-15T12:34:53.585Z,4.77
2019-02-15T12:37:20.269Z,4.43
2019-02-15T12:39:47.221Z,4.30
2019-02-15T12:42:14.035Z,4.70
2019-02-15T12:44:41.041Z,4.50
2019-02-15T12:47:14.790Z,4.33
2019-02-15T12:49:36.367Z,4.23
2019-02-15T12:52:03.149Z,4.40
2019-02-15T12:54:29.845Z,4.60
2019-02-15T12:56:56.681Z,3.57
2019-02-15T12:59:23.366Z,3.67
2019-02-15T13:01:50.037Z,4.37
2019-02-15T13:04:17.050Z,6.20
2019-02-15T13:06:43.979Z,4.20
2019-02-15T13:09:10.865Z,4.50
2019-02-15T13:11:37.466Z,4.20
2019-02-15T13:14:04.358Z,3.87
2019-02-15T13:16:31.295Z,4.10
2019-02-15T13:18:58.414Z,3.63
2019-02-15T13:21:25.674Z,2.80
2019-02-15T13:23:52.412Z,3.23
2019-02-15T13:26:19.321Z,2.97
2019-02-15T13:28:46.106Z,2.80
2019-02-15T13:31:12.807Z,2.60
2019-02-15T13:33:39.533Z,1.90
2019-02-15T13:36:06.306Z,1.47
2019-02-15T13:38:32.952Z,1.90
2019-02-15T13:40:59.849Z,2.10
2019-02-15T13:43:26.573Z,1.60
2019-02-15T13:45:53.261Z,1.80
2019-02-15T13:48:19.896Z,1.40
2019-02-15T13:50:46.559Z,1.80
2019-02-15T13:53:13.355Z,1.23
2019-02-15T13:55:40.375Z,1.50
2019-02-15T13:58:07.020Z,1.97
2019-02-15T14:00:33.817Z,1.60
2019-02-15T14:03:00.632Z,1.70
2019-02-15T14:05:27.398Z,2.30
2019-02-15T14:07:54.062Z,1.93
2019-02-15T14:10:20.797Z,2.20
2019-02-15T14:12:47.476Z,2.20
2019-02-15T14:15:14.143Z,1.90
2019-02-15T14:17:44.736Z,1.60
2019-02-15T14:20:12.021Z,1.90
2019-02-15T14:22:38.705Z,2.27
2019-02-15T14:25:07.657Z,2.00
2019-02-15T14:27:34.916Z,1.83
2019-02-15T14:30:02.054Z,2.17
2019-02-15T14:32:28.674Z,2.13
2019-02-15T14:34:55.472Z,2.63
2019-02-15T14:37:22.216Z,2.00
2019-02-15T14:39:48.913Z,2.50
2019-02-15T14:42:15.568Z,2.30
2019-02-15T14:44:42.251Z,2.43
2019-02-15T14:47:09.044Z,2.13
2019-02-15T14:49:35.682Z,2.40
2019-02-15T14:52:02.412Z,2.33
2019-02-15T14:54:29.071Z,1.83
2019-02-15T14:56:55.945Z,1.60
2019-02-15T14:59:22.616Z,2.10
2019-02-15T15:01:49.501Z,2.00
2019-02-15T15:04:16.315Z,2.00
2019-02-15T15:06:42.946Z,2.27
2019-02-15T15:09:09.633Z,2.00
2019-02-15T15:11:36.744Z,2.00
2019-02-15T15:14:03.513Z,2.20
2019-02-15T15:16:30.216Z,2.00
2019-02-15T15:18:56.850Z,1.73
2019-02-15T15:21:23.480Z,2.40
2019-02-15T15:23:50.216Z,1.83
2019-02-15T15:26:16.918Z,2.30
2019-02-15T15:28:43.657Z,2.33
2019-02-15T15:31:11.290Z,1.97
2019-02-15T15:33:38.292Z,2.47
2019-02-15T15:36:05.040Z,2.33
2019-02-15T15:38:31.719Z,2.23
2019-02-15T15:40:58.500Z,2.53
2019-02-15T15:43:25.305Z,2.80
2019-02-15T15:45:51.996Z,2.37
2019-02-15T15:48:22.692Z,2.43
2019-02-15T15:50:48.234Z,2.93
2019-02-15T15:53:15.055Z,2.60
2019-02-15T15:55:44.555Z,2.97
2019-02-15T15:58:11.392Z,2.20
2019-02-15T16:00:39.389Z,2.57
2019-02-15T16:03:06.244Z,2.47
2019-02-15T16:05:32.866Z,2.53
2019-02-15T16:07:59.634Z,2.60
2019-02-15T16:10:26.252Z,3.20
2019-02-15T16:12:52.932Z,2.57
2019-02-15T16:15:19.569Z,3.50
2019-02-15T16:17:46.349Z,4.00
2019-02-15T16:20:13.017Z,5.60
2019-02-15T16:22:39.675Z,6.27
2019-02-15T16:25:07.319Z,7.77
2019-02-15T16:27:34.012Z,6.90
2019-02-15T16:30:00.848Z,4.80
2019-02-15T16:32:27.634Z,5.90
2019-02-15T16:34:54.248Z,6.63
2019-02-15T16:37:21.076Z,6.53
2019-02-15T16:39:47.798Z,7.17
2019-02-15T16:42:14.584Z,6.70
2019-02-15T16:44:41.255Z,6.03
2019-02-15T16:47:07.969Z,6.47
2019-02-15T16:49:34.723Z,7.80
2019-02-15T16:52:01.495Z,8.73
2019-02-15T16:54:28.163Z,11.80
2019-02-15T16:56:54.790Z,10.93
2019-02-15T16:59:21.584Z,10.90
2019-02-15T17:01:48.382Z,10.73
2019-02-15T17:04:15.122Z,12.17
2019-02-15T17:06:41.788Z,11.70
2019-02-15T17:09:10.391Z,26.00
2019-02-15T17:11:37.007Z,28.57
2019-02-15T17:14:05.612Z,47.90
2019-02-15T17:16:32.246Z,62.73
2019-02-15T17:18:59.152Z,73.60
2019-02-15T17:21:25.960Z,88.43
2019-02-15T17:23:52.588Z,103.13
2019-02-15T17:26:19.268Z,66.63
2019-02-15T17:28:46.012Z,63.30
2019-02-15T17:31:12.694Z,39.73
2019-02-15T17:33:39.305Z,41.13
2019-02-15T17:36:06.140Z,42.80
2019-02-15T17:38:32.908Z,47.97
2019-02-15T17:40:59.587Z,44.80
2019-02-15T17:43:26.220Z,38.90
2019-02-15T17:45:53.047Z,37.10
2019-02-15T17:48:19.709Z,39.90
2019-02-15T17:50:46.399Z,41.90
2019-02-15T17:53:13.115Z,32.43
2019-02-15T17:55:39.742Z,42.13
2019-02-15T17:58:07.965Z,42.40
2019-02-15T18:00:34.770Z,24.93
2019-02-15T18:03:01.554Z,38.70
2019-02-15T18:05:28.660Z,37.07
2019-02-15T18:07:55.353Z,37.97
2019-02-15T18:10:21.993Z,33.77
2019-02-15T18:12:48.804Z,32.73
2019-02-15T18:15:15.538Z,25.90
2019-02-15T18:17:42.487Z,22.40
2019-02-15T18:20:09.084Z,18.83
2019-02-15T18:22:35.844Z,17.03
2019-02-15T18:25:03.950Z,16.73
2019-02-15T18:27:30.606Z,13.20
2019-02-15T18:29:57.231Z,9.90
2019-02-15T18:32:24.080Z,7.80
2019-02-15T18:34:50.777Z,9.43
2019-02-15T18:37:17.440Z,9.40
2019-02-15T18:39:44.087Z,10.20
2019-02-15T18:42:10.811Z,9.70
2019-02-15T18:44:37.489Z,10.67
2019-02-15T18:47:04.581Z,9.60
2019-02-15T18:49:31.384Z,11.57
2019-02-15T18:51:58.275Z,8.93
2019-02-15T18:54:24.911Z,8.20
2019-02-15T18:56:51.578Z,8.90
2019-02-15T18:59:18.228Z,8.33
2019-02-15T19:01:44.921Z,8.77
2019-02-15T19:04:11.671Z,9.57
2019-02-15T19:06:38.434Z,8.13
2019-02-15T19:09:05.249Z,8.23
2019-02-15T19:11:31.981Z,8.23
2019-02-15T19:13:58.772Z,8.93
2019-02-15T19:16:25.403Z,9.27
2019-02-15T19:18:52.803Z,9.80
2019-02-15T19:21:19.466Z,10.13
2019-02-15T19:23:46.089Z,10.33
2019-02-15T19:26:12.931Z,11.70
2019-02-15T19:28:39.675Z,13.40
2019-02-15T19:31:06.398Z,19.50
2019-02-15T19:33:33.332Z,16.57
2019-02-15T19:36:00.093Z,15.90
2019-02-15T19:38:26.764Z,15.47
2019-02-15T19:40:55.622Z,13.77
2019-02-15T19:43:22.408Z,13.20
2019-02-15T19:45:50.521Z,12.33
2019-02-15T19:48:17.217Z,12.60
2019-02-15T19:50:44.386Z,12.43
2019-02-15T19:53:30.813Z,14.60
2019-02-15T19:55:57.503Z,14.57
2019-02-15T19:58:24.316Z,12.60
2019-02-15T20:00:51.158Z,13.50
2019-02-15T20:03:17.862Z,11.87
2019-02-15T20:05:44.518Z,11.40
2019-02-15T20:08:11.255Z,11.00
2019-02-15T20:10:38.080Z,10.90
2019-02-15T20:13:04.748Z,10.83
2019-02-15T20:15:31.392Z,11.00
2019-02-15T20:17:58.059Z,10.17
2019-02-15T20:20:24.808Z,11.57
2019-02-15T20:22:51.452Z,10.73
2019-02-15T20:25:18.662Z,12.67
2019-02-15T20:27:45.404Z,10.60
2019-02-15T20:30:17.997Z,9.57
2019-02-15T20:32:44.803Z,9.80
2019-02-15T20:35:13.488Z,11.50
2019-02-15T20:37:40.089Z,11.60
2019-02-15T20:40:08.740Z,11.10
2019-02-15T20:42:36.944Z,12.30
2019-02-15T20:45:21.244Z,11.83
2019-02-15T20:47:48.085Z,12.53
2019-02-15T20:50:14.906Z,12.77
2019-02-15T20:52:41.596Z,12.37
2019-02-15T20:55:11.391Z,12.03
2019-02-15T20:57:38.138Z,16.70
2019-02-15T21:00:08.817Z,17.83
2019-02-15T21:02:35.611Z,36.20
2019-02-15T21:05:02.244Z,42.60
2019-02-15T21:07:29.008Z,44.30
2019-02-15T21:09:55.640Z,43.80
2019-02-15T21:12:22.437Z,36.00
2019-02-15T21:14:49.061Z,32.93
2019-02-15T21:17:15.744Z,28.50
2019-02-15T21:19:42.370Z,24.93
2019-02-15T21:22:09.066Z,20.50
2019-02-15T21:24:35.819Z,20.33
2019-02-15T21:27:02.548Z,18.17
2019-02-15T21:29:29.212Z,18.20
2019-02-15T21:31:56.956Z,8.93
2019-02-15T21:34:23.729Z,11.33
2019-02-15T21:36:50.309Z,11.80
2019-02-15T21:39:17.392Z,11.67
2019-02-15T21:41:44.005Z,10.90
2019-02-15T21:44:10.672Z,8.50
2019-02-15T21:46:37.320Z,8.67
2019-02-15T21:49:04.095Z,8.37
2019-02-15T21:51:30.870Z,8.17
2019-02-15T21:53:57.608Z,8.30
2019-02-15T21:56:24.404Z,7.87
2019-02-15T21:58:51.162Z,8.87
2019-02-15T22:01:17.957Z,8.10
2019-02-15T22:03:44.586Z,8.07
2019-02-15T22:06:11.264Z,8.53
2019-02-15T22:08:37.904Z,7.70
2019-02-15T22:11:04.565Z,7.33
2019-02-15T22:13:31.198Z,7.43
2019-02-15T22:15:58.206Z,8.27
2019-02-15T22:18:24.844Z,7.70
2019-02-15T22:20:51.498Z,8.40
2019-02-15T22:23:18.148Z,8.70
2019-02-15T22:25:44.780Z,8.40
2019-02-15T22:28:11.501Z,7.87
2019-02-15T22:30:38.342Z,7.90
2019-02-15T22:33:05.201Z,7.93
2019-02-15T22:35:31.917Z,8.50
2019-02-15T22:37:58.574Z,8.40
2019-02-15T22:40:32.829Z,8.00
2019-02-15T22:43:05.760Z,7.57
2019-02-15T22:45:32.437Z,6.70
2019-02-15T22:47:59.095Z,7.40
2019-02-15T22:50:25.796Z,6.67
2019-02-15T22:52:52.453Z,6.70
2019-02-15T22:55:19.215Z,6.83
2019-02-15T22:57:46.024Z,7.73
2019-02-15T23:00:46.203Z,8.43
2019-02-15T23:03:13.936Z,9.10
2019-02-15T23:05:40.725Z,9.30
2019-02-15T23:08:07.372Z,8.43
2019-02-15T23:10:34.056Z,8.97
2019-02-15T23:13:00.685Z,8.77
2019-02-15T23:15:27.327Z,8.30
2019-02-15T23:17:54.029Z,9.40
2019-02-15T23:20:20.866Z,9.33
2019-02-15T23:22:47.621Z,8.87
2019-02-15T23:25:14.654Z,8.40
2019-02-15T23:27:41.486Z,9.10
2019-02-15T23:30:08.764Z,8.03
2019-02-15T23:32:35.792Z,7.97
2019-02-15T23:35:02.768Z,9.03
2019-02-15T23:37:29.466Z,9.10
2019-02-15T23:39:56.159Z,9.30
2019-02-15T23:42:22.904Z,10.40
2019-02-15T23:44:49.528Z,8.40
2019-02-15T23:47:16.308Z,8.40
2019-02-15T23:49:43.013Z,8.90
2019-02-15T23:52:09.832Z,8.77
2019-02-15T23:54:36.568Z,9.20
2019-02-15T23:57:03.283Z,8.60
2019-02-15T23:59:31.124Z,8.13
